Time;durP1;ratioP1;P1;durP2;ratioP2;P2;SDS_P1;SDS_P2;PMS_P1;PMS_P2;Temp;Humidity;BMP_temperature;BMP_pressure;BME280_temperature;BME280_humidity;BME280_pressure;Samples;Min_cycle;Max_cycle;Signal;HPM_P1;HPM_P2
2023/12/14 00:01:41;;;;;;;;;;;;;;;12.60;62.16;99654.69;4989676;28;6867;-93
2023/12/14 00:04:07;;;;;;;;;;;;;;;12.62;61.27;99655.63;5005519;28;7167;-92
2023/12/14 00:06:32;;;;;;;;;;;;;;;12.61;61.67;99662.44;4983023;23;6785;-74
2023/12/14 00:08:58;;;;;;;;;;;;;;;12.61;61.62;99659.88;4956225;28;7215;-74
2023/12/14 00:11:23;;;;;;;;;;;;;;;12.61;61.06;99665.00;4973706;28;6965;-74
2023/12/14 00:13:49;;;;;;;;;;;;;;;12.62;61.95;99669.31;4955796;28;6784;-74
2023/12/14 00:16:14;;;;;;;;;;;;;;;12.63;61.65;99671.06;4955792;28;6791;-75
2023/12/14 00:18:40;;;;;;;;;;;;;;;12.62;62.32;99679.59;4955396;28;6945;-75
2023/12/14 00:21:05;;;;;;;;;;;;;;;12.63;61.50;99685.63;4969807;28;6852;-74
2023/12/14 00:23:31;;;;;;;;;;;;;;;12.63;61.57;99681.34;4976378;28;6792;-74
2023/12/14 00:25:56;;;;;;;;;;;;;;;12.62;61.69;99689.88;4956739;28;8495;-75
2023/12/14 00:28:22;;;;;;;;;;;;;;;12.63;61.79;99701.91;4973504;28;6887;-76
2023/12/14 00:30:48;;;;;;;;;;;;;;;12.61;61.62;99692.44;4960740;28;6982;-74
2023/12/14 00:33:13;;;;;;;;;;;;;;;12.59;62.15;99694.06;4960714;28;6828;-75
2023/12/14 00:35:39;;;;;;;;;;;;;;;12.57;61.57;99701.75;4975839;28;6779;-74
2023/12/14 00:38:04;;;;;;;;;;;;;;;12.52;61.63;99703.31;4961275;28;6796;-74
2023/12/14 00:40:30;;;;;;;;;;;;;;;12.50;61.38;99716.09;4963709;28;7420;-74
2023/12/14 00:42:55;;;;;;;;;;;;;;;12.47;61.76;99717.75;4964245;28;6784;-74
2023/12/14 00:45:21;;;;;;;;;;;;;;;12.46;62.58;99726.28;4978213;28;6792;-73
2023/12/14 00:47:46;;;;;;;;;;;;;;;12.46;61.70;99726.28;4960244;28;6992;-76
2023/12/14 00:50:11;;;;;;;;;;;;;;;12.43;61.88;99728.75;4974741;28;7051;-74
2023/12/14 00:52:37;;;;;;;;;;;;;;;12.43;62.01;99744.16;4957648;28;7353;-74
2023/12/14 00:55:03;;;;;;;;;;;;;;;12.46;62.94;99740.00;4975370;28;7111;-75
2023/12/14 00:57:28;;;;;;;;;;;;;;;12.46;62.13;99745.13;4972981;28;7451;-76
2023/12/14 00:59:54;;;;;;;;;;;;;;;12.48;61.86;99742.63;4977975;28;6799;-74
2023/12/14 01:02:19;;;;;;;;;;;;;;;12.48;62.31;99752.91;4975097;28;6808;-75
2023/12/14 01:04:45;;;;;;;;;;;;;;;12.48;62.17;99763.19;4974846;28;7016;-75
2023/12/14 01:07:10;;;;;;;;;;;;;;;12.46;62.51;99768.25;4992127;28;7299;-74
2023/12/14 01:09:36;;;;;;;;;;;;;;;12.44;62.05;99775.06;4974922;28;6993;-73
2023/12/14 01:12:01;;;;;;;;;;;;;;;12.45;62.26;99783.63;4959482;28;6978;-76
2023/12/14 01:14:27;;;;;;;;;;;;;;;12.45;62.48;99786.19;4977909;28;6910;-74
2023/12/14 01:16:52;;;;;;;;;;;;;;;12.46;61.98;99795.69;4972411;28;6942;-75
2023/12/14 01:19:18;;;;;;;;;;;;;;;12.47;62.75;99794.84;4965019;28;6963;-73
2023/12/14 01:21:43;;;;;;;;;;;;;;;12.47;62.27;99800.84;4962055;28;6961;-75
2023/12/14 01:24:09;;;;;;;;;;;;;;;12.47;62.71;99800.00;4984383;28;6982;-74
2023/12/14 01:26:34;;;;;;;;;;;;;;;12.49;61.90;99808.63;4968152;28;7006;-74
2023/12/14 01:29:00;;;;;;;;;;;;;;;12.48;62.66;99814.59;4973910;28;7198;-75
2023/12/14 01:31:25;;;;;;;;;;;;;;;12.51;62.94;99817.25;4974029;28;7221;-74
2023/12/14 01:33:52;;;;;;;;;;;;;;;12.52;62.74;99821.56;4990245;28;7177;-74
2023/12/14 01:36:25;;;;;;;;;;;;;;;12.52;62.50;99824.13;4973157;28;6807;-75
2023/12/14 01:38:51;;;;;;;;;;;;;;;12.53;61.88;99827.56;4978724;28;6808;-75
2023/12/14 01:41:17;;;;;;;;;;;;;;;12.55;62.76;99839.63;4971491;28;6796;-74
2023/12/14 01:43:42;;;;;;;;;;;;;;;12.57;62.10;99848.28;4980312;28;7049;-74
2023/12/14 01:46:08;;;;;;;;;;;;;;;12.56;62.45;99841.41;4958715;28;7089;-75
2023/12/14 01:48:34;;;;;;;;;;;;;;;12.57;62.19;99850.84;4988241;28;6784;-74
2023/12/14 01:50:59;;;;;;;;;;;;;;;12.57;62.08;99849.97;4965462;28;6980;-73
2023/12/14 01:53:25;;;;;;;;;;;;;;;12.58;62.67;99856.84;4990384;28;6965;-74
2023/12/14 01:55:50;;;;;;;;;;;;;;;12.53;62.23;99854.13;4993574;28;7051;-74
2023/12/14 01:58:16;;;;;;;;;;;;;;;12.52;62.39;99862.69;4979128;28;6970;-74
2023/12/14 02:01:08;;;;;;;;;;;;;;;12.47;61.69;99864.25;4990158;28;8550;-76
2023/12/14 02:03:33;;;;;;;;;;;;;;;12.40;62.55;99872.56;4979988;28;7303;-76
2023/12/14 02:06:00;;;;;;;;;;;;;;;12.37;61.79;99878.47;4986427;28;6780;-76
2023/12/14 02:08:27;;;;;;;;;;;;;;;12.33;62.50;99887.78;4969750;28;6820;-76
2023/12/14 02:10:53;;;;;;;;;;;;;;;12.29;62.64;99895.34;4988127;28;7116;-76
2023/12/14 02:13:18;;;;;;;;;;;;;;;12.25;62.35;99890.94;4989378;28;6792;-76
2023/12/14 02:15:44;;;;;;;;;;;;;;;12.20;62.07;99901.06;4986066;28;6980;-76
2023/12/14 02:18:09;;;;;;;;;;;;;;;12.15;62.38;99903.47;4988878;28;6788;-76
2023/12/14 02:20:35;;;;;;;;;;;;;;;12.11;62.01;99905.91;4990616;28;6955;-76
2023/12/14 02:23:01;;;;;;;;;;;;;;;12.08;62.57;99914.34;4972828;28;6971;-76
2023/12/14 02:25:27;;;;;;;;;;;;;;;12.05;62.65;99912.56;4980478;28;7984;-76
2023/12/14 02:27:53;;;;;;;;;;;;;;;12.03;62.50;99924.47;4960909;28;7261;-77
2023/12/14 02:30:18;;;;;;;;;;;;;;;11.99;62.33;99930.31;4967745;28;6791;-76
2023/12/14 02:32:44;;;;;;;;;;;;;;;11.95;61.88;99943.84;4970528;28;6848;-76
2023/12/14 02:35:10;;;;;;;;;;;;;;;11.92;62.66;99941.19;4967641;28;8122;-76
2023/12/14 02:37:42;;;;;;;;;;;;;;;11.86;61.68;99949.53;4960203;28;7339;-76
2023/12/14 02:40:08;;;;;;;;;;;;;;;11.77;62.34;99951.78;4969027;28;6994;-76
2023/12/14 02:42:34;;;;;;;;;;;;;;;11.70;62.62;99960.97;4974950;28;7257;-76
2023/12/14 02:45:01;;;;;;;;;;;;;;;11.66;62.58;99965.09;4989366;28;7192;-76
2023/12/14 02:47:27;;;;;;;;;;;;;;;11.64;61.98;99976.13;4980114;28;7288;-76
2023/12/14 02:49:52;;;;;;;;;;;;;;;11.62;62.29;99975.22;4971201;28;7901;-76
2023/12/14 02:52:18;;;;;;;;;;;;;;;11.56;61.98;99977.53;4968575;28;6967;-76
2023/12/14 02:54:43;;;;;;;;;;;;;;;11.51;62.02;99991.09;4978412;28;6980;-76
2023/12/14 02:57:09;;;;;;;;;;;;;;;11.48;62.40;99990.94;4984245;28;6964;-77
2023/12/14 02:59:34;;;;;;;;;;;;;;;11.46;62.04;99995.16;4972262;28;7873;-76
2023/12/14 03:02:00;;;;;;;;;;;;;;;11.43;61.96;100002.75;4975092;28;6780;-76
2023/12/14 03:04:25;;;;;;;;;;;;;;;11.39;62.28;100006.00;4969870;28;7847;-76
2023/12/14 03:06:51;;;;;;;;;;;;;;;11.35;62.11;100002.47;4974616;28;6788;-76
2023/12/14 03:09:16;;;;;;;;;;;;;;;11.31;62.35;100010.84;4989991;28;6856;-76
2023/12/14 03:11:42;;;;;;;;;;;;;;;11.28;62.29;100021.00;4977545;28;6942;-76
2023/12/14 03:14:07;;;;;;;;;;;;;;;11.28;62.73;100022.66;4971624;28;7241;-76
2023/12/14 03:16:35;;;;;;;;;;;;;;;11.28;62.45;100036.38;4971465;28;6942;-76
2023/12/14 03:19:01;;;;;;;;;;;;;;;11.28;62.93;100022.66;4977185;28;6808;-76
2023/12/14 03:21:26;;;;;;;;;;;;;;;11.30;62.41;100031.28;4975558;28;6934;-76
2023/12/14 03:23:52;;;;;;;;;;;;;;;11.29;63.04;100037.25;4990313;28;6870;-76
2023/12/14 03:26:18;;;;;;;;;;;;;;;11.30;62.44;100041.56;4961032;28;7127;-76
2023/12/14 03:28:43;;;;;;;;;;;;;;;11.29;62.46;100039.81;4974999;28;7198;-76
2023/12/14 03:31:12;;;;;;;;;;;;;;;11.25;62.27;100041.38;4972107;28;6959;-76
2023/12/14 03:33:38;;;;;;;;;;;;;;;11.20;62.66;100042.91;4961723;28;8391;-76
2023/12/14 03:36:04;;;;;;;;;;;;;;;11.17;62.63;100047.91;4970945;28;7420;-76
2023/12/14 03:38:30;;;;;;;;;;;;;;;11.14;62.12;100042.66;4987688;28;7280;-76
2023/12/14 03:40:55;;;;;;;;;;;;;;;11.12;62.73;100052.88;4976270;28;7103;-76
2023/12/14 03:43:21;;;;;;;;;;;;;;;11.09;62.58;100052.72;4975021;28;7103;-76
2023/12/14 03:45:46;;;;;;;;;;;;;;;11.07;62.43;100054.34;4963680;28;7951;-76
2023/12/14 03:48:12;;;;;;;;;;;;;;;11.03;62.66;100062.75;4963572;28;6977;-76
2023/12/14 03:50:37;;;;;;;;;;;;;;;10.97;62.45;100068.50;4986092;28;6971;-76
2023/12/14 03:53:03;;;;;;;;;;;;;;;10.94;62.60;100076.94;4971266;28;6951;-76
2023/12/14 03:55:28;;;;;;;;;;;;;;;10.91;62.55;100079.38;4963177;28;6973;-76
2023/12/14 03:57:53;;;;;;;;;;;;;;;10.90;62.88;100092.13;4971650;28;6864;-76
2023/12/14 04:00:20;;;;;;;;;;;;;;;10.87;62.92;100090.31;4976313;28;6856;-76
2023/12/14 04:02:46;;;;;;;;;;;;;;;10.88;62.69;100093.75;4969729;28;7069;-76
2023/12/14 04:05:11;;;;;;;;;;;;;;;10.86;62.83;100093.69;4974990;28;6788;-76
2023/12/14 04:07:40;;;;;;;;;;;;;;;10.89;62.40;100091.25;4973659;28;6941;-76
2023/12/14 04:10:07;;;;;;;;;;;;;;;10.87;62.30;100098.00;4982662;28;7006;-76
2023/12/14 04:12:33;;;;;;;;;;;;;;;10.87;62.88;100098.00;4956743;28;6997;-76
2023/12/14 04:14:58;;;;;;;;;;;;;;;10.87;62.92;100098.00;4956043;28;6951;-76
2023/12/14 04:17:24;;;;;;;;;;;;;;;10.87;62.26;100103.13;4963941;28;7018;-76
2023/12/14 04:19:50;;;;;;;;;;;;;;;10.84;62.33;100103.88;4960773;28;6968;-80
2023/12/14 04:22:15;;;;;;;;;;;;;;;10.83;62.64;100114.94;4973735;28;7021;-78
2023/12/14 04:24:41;;;;;;;;;;;;;;;10.84;62.52;100115.84;4989798;28;7713;-77
2023/12/14 04:27:06;;;;;;;;;;;;;;;10.87;63.14;100126.22;4975057;28;6815;-77
2023/12/14 04:29:31;;;;;;;;;;;;;;;10.91;62.61;100127.22;4960205;28;6948;-77
2023/12/14 04:31:57;;;;;;;;;;;;;;;10.92;62.89;100127.28;4970734;28;6848;-78
2023/12/14 04:34:22;;;;;;;;;;;;;;;10.94;62.97;100135.03;4987449;28;6825;-80
2023/12/14 04:36:48;;;;;;;;;;;;;;;10.95;62.85;100127.41;4975487;28;7154;-77
2023/12/14 04:39:14;;;;;;;;;;;;;;;10.96;62.73;100138.53;4976774;28;8068;-79
2023/12/14 04:41:39;;;;;;;;;;;;;;;10.95;62.30;100137.66;4961666;28;8662;-77
2023/12/14 04:44:05;;;;;;;;;;;;;;;10.95;62.71;100141.91;4978116;28;6941;-79
2023/12/14 04:46:30;;;;;;;;;;;;;;;10.93;62.43;100138.41;4974362;28;6812;-77
2023/12/14 04:48:56;;;;;;;;;;;;;;;10.92;62.46;100152.94;4987187;28;6849;-79
2023/12/14 04:51:21;;;;;;;;;;;;;;;10.91;62.44;100151.19;4955799;28;6788;-80
2023/12/14 04:53:47;;;;;;;;;;;;;;;10.88;62.28;100151.03;4970777;28;6792;-81
2023/12/14 04:56:13;;;;;;;;;;;;;;;10.84;62.66;100154.28;4954934;28;6999;-79
2023/12/14 04:58:39;;;;;;;;;;;;;;;10.81;62.25;100159.25;4974425;28;6795;-79
2023/12/14 05:01:05;;;;;;;;;;;;;;;10.80;62.58;100162.63;4959136;28;7418;-80
2023/12/14 05:03:30;;;;;;;;;;;;;;;10.79;62.44;100166.91;4984283;28;7045;-78
2023/12/14 05:05:56;;;;;;;;;;;;;;;10.80;62.73;100170.34;4985845;28;6787;-77
2023/12/14 05:08:22;;;;;;;;;;;;;;;10.80;62.47;100175.47;4974403;28;6796;-78
2023/12/14 05:10:47;;;;;;;;;;;;;;;10.81;62.67;100184.91;4973862;28;8143;-80
2023/12/14 05:13:13;;;;;;;;;;;;;;;10.79;62.66;100179.72;4974758;28;7254;-78
2023/12/14 05:15:38;;;;;;;;;;;;;;;10.79;63.02;100189.09;4971465;28;7087;-78
2023/12/14 05:18:04;;;;;;;;;;;;;;;10.81;62.86;100190.03;4971560;28;7272;-80
2023/12/14 05:20:29;;;;;;;;;;;;;;;10.80;62.90;100199.44;4986117;28;8007;-78
2023/12/14 05:22:55;;;;;;;;;;;;;;;10.80;62.31;100204.56;4985814;28;7002;-78
2023/12/14 05:25:20;;;;;;;;;;;;;;;10.80;62.68;100208.78;4988365;28;7182;-78
2023/12/14 05:27:46;;;;;;;;;;;;;;;10.79;62.07;100213.06;4970668;28;7205;-77
2023/12/14 05:30:12;;;;;;;;;;;;;;;10.76;62.78;100214.59;4969359;28;7759;-80
2023/12/14 05:32:37;;;;;;;;;;;;;;;10.76;62.61;100227.41;5008118;28;6974;-75
2023/12/14 05:35:03;;;;;;;;;;;;;;;10.76;63.00;100235.97;5009930;28;7029;-75
2023/12/14 05:37:28;;;;;;;;;;;;;;;10.75;62.17;100236.78;4991074;28;6942;-76
2023/12/14 05:39:54;;;;;;;;;;;;;;;10.76;62.88;100240.25;5007282;28;6905;-76
2023/12/14 05:42:19;;;;;;;;;;;;;;;10.77;62.56;100247.13;4990269;28;7578;-76
2023/12/14 05:44:45;;;;;;;;;;;;;;;10.76;62.82;100243.66;5002556;28;6828;-75
2023/12/14 05:47:10;;;;;;;;;;;;;;;10.76;62.92;100256.47;5001384;28;7938;-76
2023/12/14 05:49:37;;;;;;;;;;;;;;;10.75;62.89;100256.44;4999836;28;7056;-76
2023/12/14 05:52:03;;;;;;;;;;;;;;;10.75;62.21;100271.81;5018908;28;6990;-75
2023/12/14 05:54:28;;;;;;;;;;;;;;;10.71;62.30;100275.91;5000757;28;7171;-76
2023/12/14 05:56:54;;;;;;;;;;;;;;;10.67;62.67;100279.13;5017096;28;7572;-75
2023/12/14 05:59:19;;;;;;;;;;;;;;;10.62;62.55;100284.06;5000983;28;6962;-74
2023/12/14 06:01:45;;;;;;;;;;;;;;;10.62;62.70;100286.66;5000063;28;7291;-76
2023/12/14 06:04:10;;;;;;;;;;;;;;;10.60;62.63;100293.34;5013867;28;6951;-75
2023/12/14 06:06:38;;;;;;;;;;;;;;;10.58;62.39;100305.22;4987582;28;6979;-76
2023/12/14 06:09:06;;;;;;;;;;;;;;;10.54;62.89;100319.59;5015405;28;6812;-75
2023/12/14 06:11:31;;;;;;;;;;;;;;;10.52;62.65;100322.88;5001080;28;7300;-75
2023/12/14 06:13:57;;;;;;;;;;;;;;;10.51;62.72;100329.69;4988313;28;6959;-76
2023/12/14 06:16:22;;;;;;;;;;;;;;;10.52;62.85;100330.56;5004182;28;7198;-75
2023/12/14 06:18:48;;;;;;;;;;;;;;;10.53;62.89;100333.22;4989761;28;6958;-75
2023/12/14 06:21:13;;;;;;;;;;;;;;;10.53;63.09;100346.03;5011604;28;8507;-75
2023/12/14 06:23:39;;;;;;;;;;;;;;;10.52;62.96;100351.94;5003974;28;7373;-75
2023/12/14 06:26:04;;;;;;;;;;;;;;;10.49;62.79;100350.94;5021909;28;7009;-75
2023/12/14 06:28:30;;;;;;;;;;;;;;;10.47;62.68;100357.66;4988916;28;6967;-75
2023/12/14 06:30:56;;;;;;;;;;;;;;;10.45;62.74;100357.59;5001559;28;6907;-75
2023/12/14 06:33:21;;;;;;;;;;;;;;;10.43;62.71;100366.88;5000623;28;6920;-75
2023/12/14 06:35:47;;;;;;;;;;;;;;;10.41;62.74;100361.69;5000216;28;6764;-76
2023/12/14 06:38:13;;;;;;;;;;;;;;;10.42;62.50;100370.25;4988653;28;8481;-76
2023/12/14 06:40:38;;;;;;;;;;;;;;;10.39;62.98;100370.94;5003071;28;6768;-76
2023/12/14 06:43:07;;;;;;;;;;;;;;;10.40;63.15;100370.13;4991181;28;7029;-76
2023/12/14 06:45:32;;;;;;;;;;;;;;;10.40;62.74;100371.84;4972781;28;7784;-76
2023/12/14 06:47:58;;;;;;;;;;;;;;;10.40;62.38;100375.28;4963243;28;7023;-76
2023/12/14 06:50:23;;;;;;;;;;;;;;;10.41;62.56;100381.28;4989232;28;7538;-76
2023/12/14 06:52:49;;;;;;;;;;;;;;;10.42;62.58;100386.50;4979108;28;7447;-76
2023/12/14 06:55:14;;;;;;;;;;;;;;;10.42;62.30;100383.94;4978796;28;6775;-76
2023/12/14 06:57:44;;;;;;;;;;;;;;;10.44;62.78;100393.41;4976541;28;6942;-76
2023/12/14 07:00:10;;;;;;;;;;;;;;;10.44;62.63;100398.53;4978764;28;6804;-76
2023/12/14 07:02:36;;;;;;;;;;;;;;;10.42;62.37;100409.56;4974779;28;7047;-75
2023/12/14 07:05:02;;;;;;;;;;;;;;;10.40;62.61;100417.97;4977113;28;6815;-75
2023/12/14 07:07:27;;;;;;;;;;;;;;;10.41;62.76;100417.16;4968595;28;7239;-76
2023/12/14 07:09:53;;;;;;;;;;;;;;;10.41;62.59;100424.84;4987350;28;7882;-76
2023/12/14 07:12:18;;;;;;;;;;;;;;;10.40;62.38;100436.75;4966676;28;7191;-76
2023/12/14 07:14:44;;;;;;;;;;;;;;;10.35;62.57;100443.34;4977097;28;6783;-76
2023/12/14 07:17:09;;;;;;;;;;;;;;;10.31;62.60;100444.00;4975678;28;6780;-76
2023/12/14 07:19:35;;;;;;;;;;;;;;;10.28;62.55;100447.31;4984895;28;7070;-76
2023/12/14 07:22:01;;;;;;;;;;;;;;;10.26;62.70;100455.72;4977970;28;7045;-76
2023/12/14 07:24:26;;;;;;;;;;;;;;;10.24;62.81;100454.75;4989533;28;7130;-76
2023/12/14 07:26:52;;;;;;;;;;;;;;;10.22;62.56;100464.03;4976875;28;6780;-76
2023/12/14 07:29:17;;;;;;;;;;;;;;;10.17;62.54;100461.22;4987082;28;6776;-76
2023/12/14 07:31:43;;;;;;;;;;;;;;;10.16;62.34;100459.47;4956595;28;6951;-76
2023/12/14 07:34:08;;;;;;;;;;;;;;;10.17;62.84;100475.72;4971802;28;7158;-76
2023/12/14 07:36:34;;;;;;;;;;;;;;;10.19;62.42;100476.69;4992726;28;6922;-76
2023/12/14 07:39:01;;;;;;;;;;;;;;;10.20;62.52;100481.00;4972202;28;6979;-76
2023/12/14 07:41:29;;;;;;;;;;;;;;;10.23;62.45;100486.28;4968943;28;7899;-76
2023/12/14 07:43:58;;;;;;;;;;;;;;;10.24;62.59;100488.06;4975545;28;7223;-76
2023/12/14 07:46:23;;;;;;;;;;;;;;;10.22;62.61;100495.66;4988245;28;7312;-76
2023/12/14 07:48:49;;;;;;;;;;;;;;;10.24;62.77;100498.31;4961605;28;7546;-76
2023/12/14 07:51:15;;;;;;;;;;;;;;;10.23;62.40;100501.63;4982045;28;6852;-76
2023/12/14 07:53:42;;;;;;;;;;;;;;;10.22;62.42;100500.78;5001748;28;7492;-76
2023/12/14 07:56:08;;;;;;;;;;;;;;;10.23;62.43;100514.44;4987211;28;6987;-75
2023/12/14 07:58:33;;;;;;;;;;;;;;;10.23;62.16;100515.34;5015381;28;6923;-75
2023/12/14 08:00:59;;;;;;;;;;;;;;;10.24;62.40;100519.66;4997588;28;6780;-76
2023/12/14 08:03:24;;;;;;;;;;;;;;;10.22;62.23;100526.41;4991070;28;7002;-76
2023/12/14 08:05:50;;;;;;;;;;;;;;;10.21;62.57;100532.31;4977251;28;6951;-77
2023/12/14 08:08:16;;;;;;;;;;;;;;;10.21;62.48;100541.66;4987307;28;6994;-76
2023/12/14 08:10:41;;;;;;;;;;;;;;;10.22;61.98;100556.22;4998498;28;6780;-77
2023/12/14 08:13:07;;;;;;;;;;;;;;;10.20;62.25;100565.53;4994947;28;7771;-76
2023/12/14 08:15:32;;;;;;;;;;;;;;;10.17;62.22;100570.50;4996327;28;6937;-75
2023/12/14 08:17:58;;;;;;;;;;;;;;;10.15;62.69;100572.97;4987111;28;7909;-75
2023/12/14 08:20:23;;;;;;;;;;;;;;;10.14;62.51;100579.78;4999531;28;7308;-76
2023/12/14 08:22:49;;;;;;;;;;;;;;;10.15;62.46;100590.91;5002117;28;6943;-76
2023/12/14 08:25:15;;;;;;;;;;;;;;;10.13;62.77;100588.25;5003742;28;6784;-75
2023/12/14 08:27:41;;;;;;;;;;;;;;;10.13;62.01;100593.38;4984831;28;6956;-75
2023/12/14 08:30:07;;;;;;;;;;;;;;;10.12;62.13;100596.75;4995449;28;7145;-75
2023/12/14 08:32:33;;;;;;;;;;;;;;;10.11;62.55;100591.56;4991574;28;6986;-76
2023/12/14 08:34:58;;;;;;;;;;;;;;;10.11;62.16;100605.22;5004697;28;7736;-76
2023/12/14 08:37:24;;;;;;;;;;;;;;;10.09;62.21;100604.25;5002048;28;6964;-75
2023/12/14 08:39:49;;;;;;;;;;;;;;;10.08;62.09;100609.28;5001608;28;7087;-75
2023/12/14 08:42:15;;;;;;;;;;;;;;;10.07;62.67;100610.09;4999325;28;6788;-75
2023/12/14 08:44:41;;;;;;;;;;;;;;;10.05;62.63;100620.28;4988012;28;7440;-75
2023/12/14 08:47:08;;;;;;;;;;;;;;;10.01;62.07;100618.34;4982294;28;7202;-75
2023/12/14 08:49:35;;;;;;;;;;;;;;;10.01;62.87;100623.47;5000291;28;6984;-75
2023/12/14 08:52:01;;;;;;;;;;;;;;;10.00;62.58;100631.94;4986621;28;6959;-75
2023/12/14 08:54:27;;;;;;;;;;;;;;;10.00;62.76;100632.84;5003749;28;6816;-74
2023/12/14 08:56:52;;;;;;;;;;;;;;;9.98;62.89;100636.97;5004717;28;6784;-75
2023/12/14 08:59:19;;;;;;;;;;;;;;;9.98;62.81;100641.22;4996943;28;8030;-74
2023/12/14 09:01:45;;;;;;;;;;;;;;;9.98;62.74;100644.66;4995953;28;7338;-75
2023/12/14 09:04:11;;;;;;;;;;;;;;;9.96;62.47;100651.38;4987177;28;6834;-75
2023/12/14 09:06:36;;;;;;;;;;;;;;;9.97;62.70;100652.28;5002057;28;6783;-75
2023/12/14 09:09:02;;;;;;;;;;;;;;;9.95;62.39;100654.75;4983518;28;7040;-75
2023/12/14 09:11:28;;;;;;;;;;;;;;;9.95;62.83;100664.97;4997290;28;7087;-77
2023/12/14 09:13:53;;;;;;;;;;;;;;;9.94;62.40;100662.31;5004966;28;7154;-75
2023/12/14 09:16:18;;;;;;;;;;;;;;;9.95;62.39;100666.69;5000870;28;7006;-74
2023/12/14 09:18:44;;;;;;;;;;;;;;;9.95;62.62;100664.13;4984353;28;6917;-74
2023/12/14 09:21:09;;;;;;;;;;;;;;;9.96;62.48;100676.13;5003483;28;6947;-76
2023/12/14 09:23:35;;;;;;;;;;;;;;;9.96;62.65;100671.84;4998959;28;6780;-75
2023/12/14 09:26:00;;;;;;;;;;;;;;;9.96;62.55;100678.69;5004568;28;6768;-75
2023/12/14 09:28:26;;;;;;;;;;;;;;;9.95;62.13;100685.47;4992761;28;7363;-76
2023/12/14 09:30:52;;;;;;;;;;;;;;;9.94;62.24;100682.81;4999904;28;7207;-75
2023/12/14 09:33:17;;;;;;;;;;;;;;;9.95;62.26;100693.16;4996195;28;7846;-75
2023/12/14 09:35:43;;;;;;;;;;;;;;;9.94;62.38;100699.06;4982361;28;7247;-76
2023/12/14 09:38:09;;;;;;;;;;;;;;;9.94;62.16;100700.72;4998810;28;6772;-75
2023/12/14 09:40:34;;;;;;;;;;;;;;;9.93;63.03;100701.53;4998465;28;6974;-75
2023/12/14 09:43:01;;;;;;;;;;;;;;;9.95;62.99;100712.78;5015243;28;6938;-76
2023/12/14 09:45:30;;;;;;;;;;;;;;;9.96;62.96;100712.81;4983693;28;7076;-75
2023/12/14 09:48:00;;;;;;;;;;;;;;;9.99;62.40;100722.38;4982341;28;6985;-75
2023/12/14 09:50:26;;;;;;;;;;;;;;;10.01;62.41;100733.56;5002188;28;7218;-77
2023/12/14 09:52:51;;;;;;;;;;;;;;;10.03;62.64;100738.78;5003090;28;6815;-76
2023/12/14 09:55:17;;;;;;;;;;;;;;;10.03;62.79;100743.91;5022351;28;7013;-76
2023/12/14 09:57:43;;;;;;;;;;;;;;;10.02;61.94;100748.13;5000365;28;6929;-75
2023/12/14 10:00:13;;;;;;;;;;;;;;;9.98;62.65;100749.63;5003985;28;7208;-76
2023/12/14 10:02:39;;;;;;;;;;;;;;;9.97;62.39;100759.81;5000157;28;11712;-77
2023/12/14 10:05:09;;;;;;;;;;;;;;;9.96;62.29;100764.03;4988332;28;6939;-76
2023/12/14 10:07:40;;;;;;;;;;;;;;;9.96;62.73;100758.06;5014731;28;7432;-75
2023/12/14 10:10:10;;;;;;;;;;;;;;;9.96;62.47;100756.34;5005193;28;7003;-75
2023/12/14 10:12:54;;;;;;;;;;;;;;;9.96;62.62;100755.50;4992131;28;6804;-79
2023/12/14 10:15:20;;;;;;;;;;;;;;;9.93;62.26;100760.44;4984017;28;7238;-80
2023/12/14 10:17:53;;;;;;;;;;;;;;;9.93;62.33;100762.97;4990230;28;7520;-80
2023/12/14 10:20:21;;;;;;;;;;;;;;;9.94;62.55;100757.06;4975872;28;7367;-79
2023/12/14 10:22:49;;;;;;;;;;;;;;;9.97;62.46;100770.06;4977578;28;6808;-79
2023/12/14 10:25:14;;;;;;;;;;;;;;;9.98;62.90;100771.81;4993083;28;6827;-80
2023/12/14 10:27:40;;;;;;;;;;;;;;;10.00;62.09;100775.34;4978686;28;7209;-80
2023/12/14 10:30:08;;;;;;;;;;;;;;;10.02;62.54;100784.00;4981777;28;6799;-79
2023/12/14 10:32:34;;;;;;;;;;;;;;;10.02;62.55;100786.56;4977992;28;7215;-80
2023/12/14 10:35:00;;;;;;;;;;;;;;;10.06;62.41;100792.72;4982127;28;7147;-79
2023/12/14 10:37:26;;;;;;;;;;;;;;;10.07;62.37;100797.06;4975974;28;6820;-77
2023/12/14 10:39:53;;;;;;;;;;;;;;;10.08;62.10;100799.72;4962921;28;6966;-80
2023/12/14 10:42:21;;;;;;;;;;;;;;;10.12;62.66;100801.63;4995983;28;6879;-79
2023/12/14 10:44:52;;;;;;;;;;;;;;;10.14;62.61;100809.41;4984147;28;7814;-77
2023/12/14 10:47:19;;;;;;;;;;;;;;;10.19;62.39;100802.00;4989380;28;7078;-79
2023/12/14 10:49:50;;;;;;;;;;;;;;;10.21;62.08;100808.06;4981938;28;7082;-80
2023/12/14 10:52:17;;;;;;;;;;;;;;;10.24;62.58;100811.69;4979745;28;6808;-79
2023/12/14 10:54:45;;;;;;;;;;;;;;;10.26;62.46;100811.78;4966806;28;7334;-80
2023/12/14 10:57:11;;;;;;;;;;;;;;;10.30;62.21;100810.28;4994296;28;7324;-77
2023/12/14 10:59:37;;;;;;;;;;;;;;;10.33;61.96;100819.00;4969968;28;6970;-79
2023/12/14 11:02:10;;;;;;;;;;;;;;;10.35;62.25;100816.53;4973853;28;6810;-79
2023/12/14 11:05:00;;;;;;;;;;;;;;;10.36;62.09;100829.44;4980692;28;7008;-77
2023/12/14 11:07:45;;;;;;;;;;;;;;;10.35;61.89;100822.56;4975976;28;7157;-79
2023/12/14 11:10:11;;;;;;;;;;;;;;;10.33;61.79;100825.81;4968125;28;8146;-79
2023/12/14 11:12:37;;;;;;;;;;;;;;;10.33;62.17;100825.81;4975187;28;7034;-79
2023/12/14 11:15:04;;;;;;;;;;;;;;;10.33;62.33;100836.94;4975909;28;7147;-76
2023/12/14 11:17:30;;;;;;;;;;;;;;;10.33;62.20;100836.94;4977443;28;6799;-79
2023/12/14 11:19:56;;;;;;;;;;;;;;;10.33;62.28;100831.81;4994677;28;6788;-79
2023/12/14 11:22:27;;;;;;;;;;;;;;;10.37;62.07;100832.88;4963187;28;6968;-79
2023/12/14 11:24:55;;;;;;;;;;;;;;;10.39;62.11;100839.00;4991278;28;7341;-78
2023/12/14 11:27:30;;;;;;;;;;;;;;;10.39;62.15;100844.09;4976951;28;7189;-77
2023/12/14 11:29:56;;;;;;;;;;;;;;;10.39;61.96;100844.97;4976514;28;6970;-77
2023/12/14 11:32:21;;;;;;;;;;;;;;;10.36;61.78;100852.50;4979209;28;6800;-78
2023/12/14 11:34:47;;;;;;;;;;;;;;;10.30;62.05;100869.22;4994365;28;7058;-78
2023/12/14 11:37:13;;;;;;;;;;;;;;;10.23;61.67;100873.09;4978942;28;7122;-78
2023/12/14 11:39:38;;;;;;;;;;;;;;;10.17;61.43;100871.06;4975722;28;6871;-78
2023/12/14 11:42:08;;;;;;;;;;;;;;;10.10;61.55;100872.38;4958240;28;6960;-79
2023/12/14 11:44:33;;;;;;;;;;;;;;;10.07;61.92;100879.00;4976268;28;7311;-77
2023/12/14 11:46:59;;;;;;;;;;;;;;;10.05;61.54;100876.38;4978018;28;7172;-76
2023/12/14 11:49:29;;;;;;;;;;;;;;;10.05;62.28;100868.69;4975336;28;9537;-77
2023/12/14 11:51:55;;;;;;;;;;;;;;;10.08;62.24;100876.53;4964891;28;7315;-78
2023/12/14 11:54:21;;;;;;;;;;;;;;;10.12;61.80;100870.78;4995300;28;7903;-77
2023/12/14 11:56:47;;;;;;;;;;;;;;;10.13;61.76;100874.25;4973790;28;6799;-78
2023/12/14 11:59:15;;;;;;;;;;;;;;;10.16;62.04;100869.28;4989845;28;6796;-78
2023/12/14 12:01:59;;;;;;;;;;;;;;;10.20;62.02;100880.59;4975879;28;7206;-78
2023/12/14 12:04:25;;;;;;;;;;;;;;;10.23;62.53;100879.09;4977369;28;7021;-77
2023/12/14 12:07:02;;;;;;;;;;;;;;;10.31;62.21;100873.53;4971909;28;6795;-77
2023/12/14 12:09:36;;;;;;;;;;;;;;;10.36;62.65;100878.13;4958305;28;7268;-78
2023/12/14 12:12:02;;;;;;;;;;;;;;;10.44;62.43;100870.88;4967930;28;7900;-78
2023/12/14 12:14:28;;;;;;;;;;;;;;;10.46;61.70;100863.31;4957352;28;7005;-77
2023/12/14 12:16:55;;;;;;;;;;;;;;;10.46;61.91;100873.56;5048395;23;6779;-79
2023/12/14 12:19:20;;;;;;;;;;;;;;;10.50;61.90;100873.81;4974720;28;7116;-79
2023/12/14 12:21:46;;;;;;;;;;;;;;;10.51;61.71;100873.00;4967058;28;7256;-77
2023/12/14 12:24:11;;;;;;;;;;;;;;;10.52;61.64;100874.78;5009762;28;6862;-77
2023/12/14 12:26:36;;;;;;;;;;;;;;;10.52;61.53;100879.00;4976671;28;6787;-77
2023/12/14 12:29:05;;;;;;;;;;;;;;;10.47;61.54;100886.44;4997151;28;6864;-78
2023/12/14 12:31:31;;;;;;;;;;;;;;;10.46;61.37;100889.78;4986906;28;6875;-77
2023/12/14 12:33:57;;;;;;;;;;;;;;;10.46;61.46;100894.06;4973329;28;7868;-73
2023/12/14 12:36:22;;;;;;;;;;;;;;;10.44;61.42;100900.78;4964745;28;6788;-73
2023/12/14 12:38:47;;;;;;;;;;;;;;;10.42;61.39;100898.13;4964371;28;6776;-73
2023/12/14 12:41:14;;;;;;;;;;;;;;;10.42;61.24;100908.38;4965406;28;7191;-73
2023/12/14 12:43:39;;;;;;;;;;;;;;;10.41;61.11;100902.34;4945177;28;7475;-74
2023/12/14 12:46:05;;;;;;;;;;;;;;;10.42;61.18;100909.22;4963417;28;6795;-73